Time;durP1;ratioP1;P1;durP2;ratioP2;P2;SDS_P1;SDS_P2;PMS_P1;PMS_P2;Temp;Humidity;BMP_temperature;BMP_pressure;BME280_temperature;BME280_humidity;BME280_pressure;Samples;Min_cycle;Max_cycle;Signal;HPM_P1;HPM_P2
2022/04/22 00:00:39;;;;;;;0.40;0.40;;;8.50;99.90;;;;;;5034442;28;20486;-85
2022/04/22 00:03:07;;;;;;;0.70;0.70;;;8.50;99.90;;;;;;5034295;28;20478;-84
2022/04/22 00:05:34;;;;;;;0.30;0.30;;;8.50;99.90;;;;;;5034057;28;20455;-84
2022/04/22 00:08:01;;;;;;;1.30;0.57;;;8.40;99.90;;;;;;5034026;28;20482;-84
2022/04/22 00:10:28;;;;;;;0.40;0.30;;;8.40;99.90;;;;;;5034637;28;20435;-85
2022/04/22 00:12:55;;;;;;;2.30;0.33;;;8.50;99.90;;;;;;5034090;28;20462;-85
2022/04/22 00:15:23;;;;;;;1.00;0.43;;;8.40;99.90;;;;;;5033773;28;20455;-85
2022/04/22 00:17:50;;;;;;;0.50;0.40;;;8.40;99.90;;;;;;5034006;28;20443;-85
2022/04/22 00:20:17;;;;;;;5.60;0.60;;;8.30;99.90;;;;;;5034148;28;20505;-85
2022/04/22 00:22:45;;;;;;;0.40;0.40;;;8.30;99.90;;;;;;5033882;28;20475;-85
2022/04/22 00:25:13;;;;;;;0.30;0.30;;;8.30;99.90;;;;;;5033845;28;20450;-85
2022/04/22 00:27:41;;;;;;;1.17;0.40;;;8.30;99.90;;;;;;5033801;28;20453;-85
2022/04/22 00:30:09;;;;;;;0.93;0.80;;;8.40;99.90;;;;;;5033999;28;20445;-85
2022/04/22 00:32:38;;;;;;;0.30;0.30;;;8.30;99.90;;;;;;5033689;28;20466;-86
2022/04/22 00:35:06;;;;;;;0.40;0.30;;;8.30;99.90;;;;;;5033757;28;20801;-85
2022/04/22 00:37:32;;;;;;;0.80;0.37;;;8.20;99.90;;;;;;5033445;28;20450;-85
2022/04/22 00:39:59;;;;;;;0.40;0.40;;;8.20;99.90;;;;;;5033615;28;20489;-85
2022/04/22 00:42:28;;;;;;;0.40;0.30;;;8.10;99.90;;;;;;5033464;28;20465;-85
2022/04/22 00:44:55;;;;;;;0.50;0.40;;;8.00;99.90;;;;;;5033489;28;20486;-85
2022/04/22 00:47:22;;;;;;;0.40;0.30;;;8.00;99.90;;;;;;5033490;28;20442;-85
2022/04/22 00:49:50;;;;;;;0.40;0.30;;;7.90;99.90;;;;;;5033479;28;20450;-85
2022/04/22 00:52:19;;;;;;;0.40;0.30;;;7.90;99.90;;;;;;5033101;28;20462;-85
2022/04/22 00:54:46;;;;;;;0.30;0.30;;;7.90;99.90;;;;;;5033599;28;20447;-85
2022/04/22 00:57:14;;;;;;;0.30;0.23;;;7.80;99.90;;;;;;5033317;28;20441;-86
2022/04/22 00:59:41;;;;;;;0.30;0.30;;;7.80;99.90;;;;;;5033371;28;20829;-85
2022/04/22 01:02:08;;;;;;;1.53;1.43;;;7.90;99.90;;;;;;5033025;28;20463;-85
2022/04/22 01:10:07;;;;;;;0.60;0.40;;;7.80;99.90;;;;;;5033619;28;20415;-86
2022/04/22 01:12:35;;;;;;;0.43;0.43;;;7.70;99.90;;;;;;5033182;28;20459;-86
2022/04/22 01:15:02;;;;;;;0.30;0.30;;;7.80;99.90;;;;;;5033114;28;20450;-85
2022/04/22 01:17:29;;;;;;;0.40;0.37;;;7.70;99.90;;;;;;5035443;28;20446;-85
2022/04/22 01:19:57;;;;;;;0.30;0.30;;;7.70;99.90;;;;;;5037390;28;20450;-85
2022/04/22 01:22:27;;;;;;;0.40;0.30;;;7.60;99.90;;;;;;5037376;28;20463;-85
2022/04/22 01:24:55;;;;;;;0.60;0.30;;;7.60;99.90;;;;;;5037449;28;20454;-85
2022/04/22 01:27:24;;;;;;;0.50;0.50;;;7.50;99.90;;;;;;5037203;28;20447;-85
2022/04/22 01:29:51;;;;;;;0.40;0.30;;;7.50;99.90;;;;;;5037285;28;20520;-85
2022/04/22 01:32:18;;;;;;;0.93;0.60;;;7.50;99.90;;;;;;5036919;28;20965;-85
2022/04/22 01:34:44;;;;;;;0.40;0.40;;;7.50;99.90;;;;;;5037207;28;20465;-85
2022/04/22 01:37:11;;;;;;;0.30;0.30;;;7.40;99.90;;;;;;5037326;28;20794;-85
2022/04/22 01:39:39;;;;;;;0.40;0.40;;;7.40;99.90;;;;;;5036835;28;20946;-85
2022/04/22 01:42:06;;;;;;;0.50;0.50;;;7.40;99.90;;;;;;5036687;28;20854;-85
2022/04/22 01:44:35;;;;;;;0.60;0.60;;;7.40;99.90;;;;;;5036879;28;20446;-85
2022/04/22 01:47:02;;;;;;;0.37;0.37;;;7.30;99.90;;;;;;5037076;28;20903;-85
2022/04/22 01:49:29;;;;;;;0.70;0.70;;;7.40;99.90;;;;;;5019877;28;20443;-85
2022/04/22 01:51:56;;;;;;;0.37;0.30;;;7.30;99.90;;;;;;5036546;28;20455;-86
2022/04/22 01:54:24;;;;;;;0.50;0.50;;;7.40;99.90;;;;;;5036663;28;20525;-85
2022/04/22 01:56:52;;;;;;;0.40;0.40;;;7.30;99.90;;;;;;5036861;28;20446;-86
2022/04/22 01:59:19;;;;;;;1.37;0.60;;;7.30;99.90;;;;;;5036800;28;20450;-86
2022/04/22 02:01:46;;;;;;;0.30;0.30;;;7.20;99.90;;;;;;5036682;28;20497;-85
2022/04/22 02:04:12;;;;;;;0.40;0.40;;;7.20;99.90;;;;;;5040290;28;20454;-86
2022/04/22 02:06:39;;;;;;;0.87;0.87;;;7.20;99.90;;;;;;5036211;28;20936;-85
2022/04/22 02:09:06;;;;;;;0.40;0.37;;;7.30;99.90;;;;;;5036495;28;20450;-85
2022/04/22 02:11:33;;;;;;;0.30;0.30;;;7.20;99.90;;;;;;5036337;28;20471;-86
2022/04/22 02:14:01;;;;;;;0.83;0.57;;;7.20;99.90;;;;;;5036493;28;20528;-85
2022/04/22 02:16:28;;;;;;;0.40;0.40;;;7.20;99.90;;;;;;5036335;28;20450;-85
2022/04/22 02:18:55;;;;;;;0.30;0.30;;;7.10;99.90;;;;;;5036356;28;20450;-85
2022/04/22 02:21:22;;;;;;;0.40;0.33;;;7.10;99.90;;;;;;5035905;28;20489;-86
2022/04/22 02:23:48;;;;;;;0.43;0.40;;;7.10;99.90;;;;;;5036139;28;20510;-85
2022/04/22 02:26:15;;;;;;;0.40;0.30;;;7.10;99.90;;;;;;5036118;28;20451;-85
2022/04/22 02:28:41;;;;;;;0.87;0.70;;;7.10;99.90;;;;;;5035822;28;20494;-85
2022/04/22 02:31:11;;;;;;;0.40;0.40;;;7.00;99.90;;;;;;5035928;28;20462;-86
2022/04/22 02:33:39;;;;;;;0.30;0.30;;;7.00;99.90;;;;;;5036775;28;20208;-85
2022/04/22 02:36:07;;;;;;;0.40;0.30;;;7.00;99.90;;;;;;5036045;28;20466;-86
2022/04/22 02:38:34;;;;;;;0.63;0.63;;;7.00;99.90;;;;;;5036086;28;20446;-85
2022/04/22 02:46:31;;;;;;;0.30;0.20;;;6.80;99.90;;;;;;5035734;28;20411;-85
2022/04/22 02:48:59;;;;;;;0.30;0.30;;;6.80;99.90;;;;;;5035645;28;20469;-85
2022/04/22 02:51:26;;;;;;;0.40;0.30;;;6.80;99.90;;;;;;5035300;28;21005;-85
2022/04/22 02:53:53;;;;;;;0.50;0.40;;;6.70;99.90;;;;;;5035677;28;20458;-86
2022/04/22 02:56:22;;;;;;;0.40;0.30;;;6.60;99.90;;;;;;5035541;28;20443;-86
2022/04/22 02:58:48;;;;;;;0.30;0.30;;;6.60;99.90;;;;;;5035466;28;20453;-85
2022/04/22 03:01:15;;;;;;;0.40;0.30;;;6.60;99.90;;;;;;5035043;28;20490;-88
2022/04/22 03:03:44;;;;;;;0.30;0.30;;;6.60;99.90;;;;;;5035477;28;20435;-85
2022/04/22 03:06:11;;;;;;;0.50;0.50;;;6.60;99.90;;;;;;5035452;28;20453;-85
2022/04/22 03:08:38;;;;;;;0.40;0.30;;;6.50;99.90;;;;;;5035348;28;20451;-85
2022/04/22 03:11:04;;;;;;;0.40;0.37;;;6.50;99.90;;;;;;5034973;28;20787;-85
2022/04/22 03:13:31;;;;;;;1.30;1.00;;;6.50;99.90;;;;;;5035241;28;20446;-88
2022/04/22 03:15:59;;;;;;;0.40;0.40;;;6.50;99.90;;;;;;5035926;28;20781;-86
2022/04/22 03:18:25;;;;;;;0.30;0.20;;;6.50;99.90;;;;;;5035255;28;20787;-85
2022/04/22 03:20:53;;;;;;;0.30;0.30;;;6.50;99.90;;;;;;5034848;28;20497;-85
2022/04/22 03:23:20;;;;;;;0.40;0.40;;;6.50;99.90;;;;;;5034726;28;20439;-87
2022/04/22 03:25:47;;;;;;;0.40;0.33;;;6.50;99.90;;;;;;5035037;28;20446;-86
2022/04/22 03:28:15;;;;;;;0.40;0.40;;;6.50;99.90;;;;;;5035004;28;20557;-86
2022/04/22 03:30:42;;;;;;;1.27;0.50;;;6.50;99.90;;;;;;5034878;28;20882;-87
2022/04/22 03:33:09;;;;;;;3.60;0.70;;;6.40;99.90;;;;;;5034729;28;20478;-87
2022/04/22 03:35:35;;;;;;;0.97;0.60;;;6.40;99.90;;;;;;5034744;28;20455;-87
2022/04/22 03:38:03;;;;;;;0.53;0.50;;;6.40;99.90;;;;;;5034730;28;20455;-87
2022/04/22 03:40:30;;;;;;;0.30;0.27;;;6.40;99.90;;;;;;5034029;28;20522;-87
2022/04/22 03:42:57;;;;;;;0.40;0.40;;;6.40;99.90;;;;;;5034558;28;20455;-87
2022/04/22 03:45:24;;;;;;;0.47;0.47;;;6.40;99.90;;;;;;5034626;28;20447;-87
2022/04/22 03:47:51;;;;;;;0.30;0.30;;;6.30;99.90;;;;;;5034496;28;20874;-88
2022/04/22 03:50:18;;;;;;;0.30;0.30;;;6.30;99.90;;;;;;5034471;28;20458;-88
2022/04/22 03:52:44;;;;;;;0.30;0.30;;;6.30;99.90;;;;;;5034295;28;20485;-88
2022/04/22 03:55:13;;;;;;;0.30;0.30;;;6.30;99.90;;;;;;5034110;28;20453;-87
2022/04/22 04:00:23;;;;;;;1.13;0.80;;;6.20;99.90;;;;;;5034395;28;20414;-87
2022/04/22 04:02:50;;;;;;;0.67;0.30;;;6.20;99.90;;;;;;5034229;28;20889;-88
2022/04/22 04:05:17;;;;;;;1.37;0.40;;;6.10;99.90;;;;;;5034173;28;20463;-87
2022/04/22 04:07:44;;;;;;;1.13;0.40;;;6.10;99.90;;;;;;5033767;28;20486;-87
2022/04/22 04:15:59;;;;;;;0.40;0.33;;;6.10;99.90;;;;;;5034074;28;20407;-88
2022/04/22 04:18:27;;;;;;;0.67;0.60;;;6.10;99.90;;;;;;5034034;28;20426;-88
2022/04/22 04:23:38;;;;;;;0.70;0.53;;;6.10;99.90;;;;;;5033773;28;20417;-88
2022/04/22 04:26:06;;;;;;;0.77;0.50;;;6.10;99.90;;;;;;5033743;28;20447;-88
2022/04/22 04:28:33;;;;;;;0.30;0.20;;;6.10;99.90;;;;;;5033519;28;20450;-88
2022/04/22 04:31:01;;;;;;;0.40;0.30;;;6.10;99.90;;;;;;5033331;28;20560;-87
2022/04/22 04:33:28;;;;;;;1.13;0.93;;;6.10;99.90;;;;;;5033328;28;20906;-88
2022/04/22 04:35:55;;;;;;;0.47;0.47;;;6.10;99.90;;;;;;5033431;28;20447;-88
2022/04/22 04:38:22;;;;;;;0.77;0.50;;;6.10;99.90;;;;;;5033539;28;20447;-88
2022/04/22 04:40:49;;;;;;;2.93;0.97;;;6.10;99.90;;;;;;5033715;28;20438;-87
2022/04/22 04:43:18;;;;;;;0.60;0.40;;;6.10;99.90;;;;;;5033368;28;20431;-88
2022/04/22 04:45:45;;;;;;;0.93;0.77;;;6.10;99.90;;;;;;5033494;28;20815;-88
2022/04/22 04:48:12;;;;;;;1.03;0.80;;;6.20;99.90;;;;;;5033499;28;20489;-88
2022/04/22 04:50:40;;;;;;;1.00;0.60;;;6.20;99.90;;;;;;5032931;28;20824;-86
2022/04/22 04:53:07;;;;;;;0.30;0.30;;;6.10;99.90;;;;;;5032656;28;20517;-88
2022/04/22 04:55:34;;;;;;;0.30;0.20;;;6.20;99.90;;;;;;5033367;28;20442;-88
2022/04/22 04:58:01;;;;;;;1.00;0.63;;;6.40;99.90;;;;;;5033302;28;20458;-88
2022/04/22 05:00:30;;;;;;;0.93;0.40;;;6.30;99.90;;;;;;5033299;28;20482;-88
2022/04/22 05:02:57;;;;;;;0.30;0.30;;;6.40;99.90;;;;;;5032746;28;20857;-88
2022/04/22 05:05:24;;;;;;;0.40;0.30;;;6.40;99.90;;;;;;5033294;28;20447;-87
2022/04/22 05:07:55;;;;;;;0.93;0.93;;;6.40;99.90;;;;;;5032880;28;20490;-87
2022/04/22 05:10:22;;;;;;;0.70;0.50;;;6.40;99.90;;;;;;5033360;28;20466;-88
2022/04/22 05:12:50;;;;;;;0.40;0.33;;;6.40;99.90;;;;;;5033656;28;20471;-87
2022/04/22 05:15:18;;;;;;;0.70;0.50;;;6.50;99.90;;;;;;5036106;28;20454;-87
2022/04/22 05:17:47;;;;;;;1.67;0.80;;;6.50;99.90;;;;;;5033908;28;20485;-87
2022/04/22 05:20:15;;;;;;;0.70;0.70;;;6.50;99.90;;;;;;5032895;28;20461;-87
2022/04/22 05:22:42;;;;;;;0.40;0.30;;;6.60;99.90;;;;;;5032744;28;20989;-87
2022/04/22 05:25:11;;;;;;;0.70;0.43;;;6.70;99.90;;;;;;5032722;28;20442;-87
2022/04/22 05:27:38;;;;;;;0.40;0.30;;;6.70;99.90;;;;;;5032972;28;20454;-87
2022/04/22 05:32:53;;;;;;;0.40;0.40;;;6.90;99.90;;;;;;5032771;28;20957;-86
2022/04/22 05:35:21;;;;;;;2.67;0.50;;;6.90;99.90;;;;;;5032743;28;20454;-87
2022/04/22 05:37:50;;;;;;;2.40;0.97;;;7.00;99.90;;;;;;5032979;28;20443;-86
2022/04/22 05:40:18;;;;;;;4.33;0.87;;;7.00;99.90;;;;;;5032972;28;20455;-87
2022/04/22 05:42:46;;;;;;;1.43;1.33;;;7.10;99.90;;;;;;5032724;28;20494;-87
2022/04/22 05:45:15;;;;;;;2.30;0.90;;;7.30;99.90;;;;;;5033134;28;20438;-87
2022/04/22 05:47:42;;;;;;;0.40;0.40;;;7.40;99.90;;;;;;5032852;28;20461;-87
2022/04/22 05:50:12;;;;;;;0.30;0.30;;;7.50;99.90;;;;;;5032891;28;20458;-87
2022/04/22 05:52:40;;;;;;;0.63;0.60;;;7.60;99.90;;;;;;5032637;28;20974;-87
2022/04/22 05:55:09;;;;;;;0.70;0.57;;;7.80;99.90;;;;;;5032838;28;20455;-87
2022/04/22 05:57:37;;;;;;;0.97;0.50;;;7.90;99.90;;;;;;5032822;28;20450;-87
2022/04/22 06:00:07;;;;;;;1.13;1.03;;;8.20;99.90;;;;;;5032657;28;20934;-87
2022/04/22 06:02:34;;;;;;;0.63;0.63;;;8.50;99.90;;;;;;5032720;28;20478;-85
2022/04/22 06:05:00;;;;;;;0.70;0.63;;;8.70;99.90;;;;;;5036397;28;20447;-85
2022/04/22 06:07:29;;;;;;;0.73;0.73;;;8.90;99.90;;;;;;5036022;28;20482;-83
2022/04/22 06:12:40;;;;;;;2.00;0.63;;;9.40;99.90;;;;;;5036166;28;20484;-84
2022/04/22 06:15:07;;;;;;;5.23;1.67;;;9.60;99.90;;;;;;5036266;28;20442;-83
2022/04/22 06:17:34;;;;;;;3.80;1.87;;;9.90;99.90;;;;;;5035902;28;20423;-84
2022/04/22 06:20:01;;;;;;;6.33;1.37;;;10.00;99.90;;;;;;5036799;28;20475;-84
2022/04/22 06:22:30;;;;;;;0.80;0.70;;;10.20;99.90;;;;;;5035873;28;20486;-81
2022/04/22 06:24:57;;;;;;;1.33;1.13;;;10.30;99.90;;;;;;5035789;28;20497;-82
2022/04/22 06:27:25;;;;;;;1.13;1.13;;;10.50;99.90;;;;;;5036097;28;20435;-81
2022/04/22 06:29:53;;;;;;;0.80;0.80;;;10.70;99.90;;;;;;5036026;28;20818;-81
2022/04/22 06:32:22;;;;;;;1.20;1.10;;;11.00;99.90;;;;;;5036076;28;20473;-80
2022/04/22 06:34:50;;;;;;;1.53;1.13;;;11.30;99.90;;;;;;5035965;28;20550;-81
2022/04/22 06:37:17;;;;;;;2.23;1.60;;;11.70;99.90;;;;;;5036165;28;20439;-81
2022/04/22 06:48:01;;;;;;;4.50;1.70;;;13.30;99.90;;;;;;5035691;28;20402;-79
2022/04/22 06:50:28;;;;;;;2.20;1.27;;;13.90;99.90;;;;;;5035458;28;20450;-79
2022/04/22 06:52:55;;;;;;;3.17;0.97;;;14.40;99.90;;;;;;5035155;28;20474;-79
2022/04/22 06:55:25;;;;;;;2.67;1.17;;;14.80;99.90;;;;;;5035150;28;20509;-79
2022/04/22 06:57:53;;;;;;;3.63;1.83;;;15.10;99.90;;;;;;5035407;28;20485;-78
2022/04/22 07:00:21;;;;;;;1.53;1.03;;;15.50;99.90;;;;;;5035279;28;20458;-78
2022/04/22 07:02:48;;;;;;;3.77;2.30;;;16.00;99.90;;;;;;5034938;28;20493;-78
2022/04/22 07:05:16;;;;;;;1.27;1.10;;;16.70;97.70;;;;;;5035263;28;20443;-78
2022/04/22 07:07:43;;;;;;;4.10;1.57;;;17.30;94.90;;;;;;5034934;28;20493;-78
2022/04/22 07:10:10;;;;;;;2.40;1.73;;;17.70;93.10;;;;;;5034851;28;20447;-78
2022/04/22 07:12:39;;;;;;;3.27;1.60;;;17.90;90.70;;;;;;5034786;28;20529;-78
2022/04/22 07:15:07;;;;;;;7.13;3.30;;;18.30;89.00;;;;;;5034068;28;20457;-78
2022/04/22 07:17:35;;;;;;;2.23;1.77;;;18.70;86.30;;;;;;5034708;28;20464;-77
2022/04/22 07:20:05;;;;;;;8.23;2.90;;;19.10;83.50;;;;;;5034823;28;20453;-78
2022/04/22 07:22:33;;;;;;;2.23;2.03;;;19.60;81.30;;;;;;5034581;28;20485;-79
2022/04/22 07:25:00;;;;;;;4.27;3.23;;;20.30;75.70;;;;;;5034890;28;20446;-79
2022/04/22 07:27:28;;;;;;;5.70;3.07;;;20.80;75.00;;;;;;5034515;28;20713;-79
2022/04/22 07:29:58;;;;;;;5.05;3.40;;;21.20;72.00;;;;;;5034872;28;20203;-79
2022/04/22 07:32:26;;;;;;;4.00;2.75;;;21.60;69.10;;;;;;5034946;28;20215;-79
2022/04/22 07:34:54;;;;;;;10.02;2.30;;;22.10;67.00;;;;;;5035161;28;20648;-79
2022/04/22 07:37:21;;;;;;;6.47;2.97;;;22.70;62.50;;;;;;5034402;28;20191;-79
2022/04/22 07:39:49;;;;;;;3.88;3.00;;;23.10;60.80;;;;;;5034231;28;20203;-79
2022/04/22 07:42:18;;;;;;;4.35;2.78;;;23.40;59.00;;;;;;5034387;28;20231;-78
2022/04/22 07:47:35;;;;;;;4.13;2.28;;;23.70;57.60;;;;;;5034387;28;20230;-79
2022/04/22 07:50:05;;;;;;;4.43;2.78;;;23.70;55.70;;;;;;5034399;28;20205;-78
2022/04/22 07:52:32;;;;;;;5.85;2.80;;;23.40;55.70;;;;;;5034187;28;20215;-79
2022/04/22 07:54:59;;;;;;;3.65;2.97;;;22.90;55.70;;;;;;5034259;28;20214;-79
2022/04/22 07:57:26;;;;;;;5.70;3.20;;;22.90;55.90;;;;;;5033955;28;20203;-79
2022/04/22 07:59:53;;;;;;;6.00;3.38;;;22.90;55.60;;;;;;5034437;28;20231;-79
2022/04/22 08:02:20;;;;;;;3.85;2.97;;;23.30;54.90;;;;;;5033682;28;20222;-79
2022/04/22 08:04:48;;;;;;;4.55;2.80;;;23.90;53.90;;;;;;5033897;28;20199;-79
2022/04/22 08:07:15;;;;;;;5.25;3.03;;;24.30;53.50;;;;;;5033841;28;20237;-79
2022/04/22 08:09:44;;;;;;;5.45;3.58;;;24.90;52.20;;;;;;5033622;28;20212;-79
2022/04/22 08:12:12;;;;;;;8.30;3.58;;;25.50;52.00;;;;;;5033553;28;20707;-79
2022/04/22 08:14:38;;;;;;;4.00;3.22;;;26.20;50.00;;;;;;5033705;28;20191;-79
2022/04/22 08:17:05;;;;;;;6.03;2.80;;;26.60;49.10;;;;;;5033778;28;20188;-79
2022/04/22 08:19:33;;;;;;;8.48;4.32;;;27.10;47.60;;;;;;5033913;28;20188;-78
2022/04/22 08:22:01;;;;;;;5.38;3.33;;;27.50;47.50;;;;;;5033617;28;20227;-79
2022/04/22 08:24:28;;;;;;;5.10;3.50;;;27.70;46.00;;;;;;5033801;28;20196;-78
2022/04/22 08:26:56;;;;;;;4.95;3.58;;;27.40;45.60;;;;;;5033550;28;20626;-78
2022/04/22 08:29:23;;;;;;;4.97;3.45;;;27.20;46.20;;;;;;5038230;28;20210;-78
2022/04/22 08:31:52;;;;;;;5.82;3.95;;;27.10;46.70;;;;;;5033430;28;20234;-78
2022/04/22 08:34:19;;;;;;;5.20;2.83;;;26.80;47.00;;;;;;5033655;28;20292;-78
2022/04/22 08:36:46;;;;;;;6.53;4.05;;;26.60;47.00;;;;;;5033607;28;20310;-78
2022/04/22 08:39:14;;;;;;;4.85;2.90;;;26.40;45.60;;;;;;5033263;28;20665;-78
2022/04/22 08:41:42;;;;;;;7.55;3.95;;;26.00;47.10;;;;;;5033518;28;20216;-78
2022/04/22 08:44:13;;;;;;;6.32;2.78;;;25.70;46.00;;;;;;5034244;28;20562;-78
2022/04/22 08:52:11;;;;;;;3.42;3.00;;;23.70;49.40;;;;;;5033437;28;20214;-78
2022/04/22 08:54:45;;;;;;;7.25;3.67;;;23.30;49.90;;;;;;5033420;28;20192;-78
2022/04/22 08:57:12;;;;;;;6.20;2.88;;;23.00;50.60;;;;;;5033117;28;20282;-78
2022/04/22 08:59:39;;;;;;;3.20;1.90;;;22.60;51.10;;;;;;5033282;28;20207;-77
2022/04/22 09:02:05;;;;;;;3.47;2.55;;;22.50;51.90;;;;;;5032819;28;20219;-78
2022/04/22 09:04:32;;;;;;;4.88;3.20;;;22.60;51.70;;;;;;5033307;28;20211;-79
2022/04/22 09:07:00;;;;;;;3.00;2.67;;;23.10;51.30;;;;;;5032828;28;20227;-78
2022/04/22 09:09:28;;;;;;;5.57;2.50;;;23.30;51.70;;;;;;5033221;28;20204;-78
2022/04/22 09:12:08;;;;;;;3.45;2.95;;;23.60;50.70;;;;;;5033095;28;20223;-78
2022/04/22 09:14:35;;;;;;;4.13;2.75;;;23.70;50.40;;;;;;5032924;28;20571;-79
2022/04/22 09:17:02;;;;;;;4.20;1.92;;;23.60;48.60;;;;;;5033100;28;20203;-78
2022/04/22 09:19:35;;;;;;;7.25;2.75;;;23.00;49.40;;;;;;5032834;28;20199;-79
2022/04/22 09:22:02;;;;;;;6.35;2.45;;;22.40;50.60;;;;;;5033587;28;20250;-78
2022/04/22 09:24:29;;;;;;;4.68;2.17;;;22.30;52.30;;;;;;5032674;28;20260;-79
2022/04/22 09:27:08;;;;;;;1.95;1.67;;;22.20;51.90;;;;;;5033057;28;20211;-78
2022/04/22 09:29:44;;;;;;;3.37;2.67;;;22.30;51.40;;;;;;5033032;28;20203;-79
2022/04/22 09:32:12;;;;;;;3.33;2.40;;;21.90;51.10;;;;;;5032938;28;20244;-79
2022/04/22 09:34:42;;;;;;;3.97;2.53;;;21.50;51.80;;;;;;5032945;28;20816;-79
2022/04/22 09:42:51;;;;;;;4.53;1.63;;;20.40;54.40;;;;;;5036493;28;20516;-78
2022/04/22 09:45:18;;;;;;;3.50;1.93;;;20.60;54.10;;;;;;5036566;28;21104;-79
2022/04/22 09:47:55;;;;;;;4.27;2.03;;;20.90;54.20;;;;;;5036624;28;20426;-79
2022/04/22 09:50:40;;;;;;;2.60;2.40;;;21.00;53.90;;;;;;5036766;28;20426;-79
2022/04/22 09:53:07;;;;;;;3.33;2.17;;;21.00;53.70;;;;;;5036633;28;20474;-79
2022/04/22 09:55:37;;;;;;;6.30;2.60;;;20.90;54.70;;;;;;5036511;28;20450;-78
2022/04/22 09:58:06;;;;;;;3.30;2.00;;;20.80;54.80;;;;;;5036295;28;20961;-79
2022/04/22 10:00:34;;;;;;;5.83;2.20;;;20.70;54.40;;;;;;5036377;28;20956;-80
2022/04/22 10:03:01;;;;;;;4.10;2.87;;;20.50;54.80;;;;;;5036378;28;20875;-80
2022/04/22 10:05:31;;;;;;;4.87;2.17;;;20.40;55.80;;;;;;5040605;28;20450;-79
2022/04/22 10:08:00;;;;;;;2.63;2.37;;;20.30;55.90;;;;;;5035975;28;21005;-79
2022/04/22 10:10:31;;;;;;;3.10;1.67;;;20.20;54.70;;;;;;5036343;28;20537;-77
2022/04/22 10:13:01;;;;;;;5.87;2.73;;;20.20;55.10;;;;;;5036268;28;20461;-78
2022/04/22 10:15:30;;;;;;;3.90;1.90;;;20.00;55.10;;;;;;5036454;28;20450;-79
2022/04/22 10:17:57;;;;;;;5.23;2.80;;;20.00;56.10;;;;;;5035907;28;20435;-78
2022/04/22 10:20:25;;;;;;;2.43;2.23;;;19.90;56.30;;;;;;5035824;28;20438;-79
2022/04/22 10:22:52;;;;;;;6.10;2.90;;;20.00;56.20;;;;;;5035531;28;20852;-78
2022/04/22 10:25:20;;;;;;;6.80;2.00;;;20.00;56.60;;;;;;5036005;28;20459;-78
2022/04/22 10:27:47;;;;;;;4.07;1.43;;;20.00;56.00;;;;;;5036087;28;20439;-78
2022/04/22 10:30:17;;;;;;;5.37;1.83;;;19.60;56.50;;;;;;5035722;28;20836;-78
2022/04/22 10:32:49;;;;;;;3.27;1.50;;;19.80;57.20;;;;;;5035600;28;20457;-78
2022/04/22 10:35:16;;;;;;;2.53;2.20;;;20.20;56.50;;;;;;5035806;28;20445;-78
2022/04/22 10:37:43;;;;;;;4.47;1.87;;;20.80;55.20;;;;;;5035770;28;20458;-79
2022/04/22 10:40:19;;;;;;;2.10;1.43;;;21.20;55.10;;;;;;5035812;28;20426;-79
2022/04/22 10:42:46;;;;;;;3.20;1.90;;;21.10;54.50;;;;;;5035487;28;20877;-80
2022/04/22 10:47:59;;;;;;;3.33;3.00;;;21.10;54.20;;;;;;5035469;28;20767;-79
2022/04/22 10:50:31;;;;;;;2.53;1.87;;;21.40;54.20;;;;;;5034188;28;20441;-79
2022/04/22 10:53:03;;;;;;;4.20;2.30;;;21.60;53.70;;;;;;5035399;28;20462;-79
2022/04/22 10:55:35;;;;;;;2.90;1.70;;;21.90;53.20;;;;;;5035454;28;20485;-79
2022/04/22 10:58:26;;;;;;;2.67;1.90;;;22.10;52.80;;;;;;5036102;28;20905;-79
2022/04/22 11:00:58;;;;;;;6.03;2.40;;;22.10;53.50;;;;;;5035374;28;20461;-79
2022/04/22 11:03:31;;;;;;;4.60;2.20;;;22.00;54.10;;;;;;5035117;28;20231;-78
2022/04/22 11:05:59;;;;;;;4.10;3.30;;;22.10;52.90;;;;;;5035466;28;20282;-78
2022/04/22 11:08:31;;;;;;;8.00;1.90;;;21.70;54.30;;;;;;5034981;28;20234;-78
2022/04/22 11:11:15;;;;;;;1.93;1.83;;;21.40;54.80;;;;;;5035265;28;20194;-79
2022/04/22 11:13:47;;;;;;;3.97;1.80;;;21.00;55.30;;;;;;5035135;28;20293;-79
2022/04/22 11:16:29;;;;;;;4.73;2.20;;;20.60;56.10;;;;;;5035089;28;20486;-79
2022/04/22 11:19:26;;;;;;;1.67;1.53;;;20.10;56.80;;;;;;5035223;28;20456;-78
2022/04/22 11:21:55;;;;;;;2.50;1.47;;;19.80;57.20;;;;;;5035045;28;20466;-77
2022/04/22 11:24:24;;;;;;;4.57;1.63;;;19.50;57.10;;;;;;5034723;28;20513;-78
2022/04/22 11:26:52;;;;;;;3.13;2.10;;;19.20;57.90;;;;;;5034977;28;20854;-77
2022/04/22 11:29:20;;;;;;;2.83;1.37;;;18.90;57.80;;;;;;5035782;28;20454;-77
2022/04/22 11:31:57;;;;;;;3.27;1.30;;;18.60;59.00;;;;;;5034615;28;20470;-79
2022/04/22 11:34:54;;;;;;;3.30;2.23;;;18.50;59.40;;;;;;5034656;28;20496;-81
2022/04/22 11:37:23;;;;;;;2.50;1.70;;;18.40;60.30;;;;;;5034495;28;20431;-80
2022/04/22 11:39:50;;;;;;;2.80;1.60;;;18.40;60.00;;;;;;5034523;28;20907;-78
2022/04/22 11:42:18;;;;;;;2.63;1.80;;;18.40;60.10;;;;;;5037146;28;20474;-80
2022/04/22 11:44:45;;;;;;;2.90;1.90;;;18.40;59.90;;;;;;5034291;28;20479;-79
2022/04/22 11:47:12;;;;;;;4.93;1.83;;;18.50;60.20;;;;;;5034309;28;20933;-80
2022/04/22 11:49:41;;;;;;;1.93;1.53;;;18.30;59.20;;;;;;5034620;28;20458;-79
2022/04/22 12:05:36;;;;;;;3.10;1.70;;;18.30;61.20;;;;;;5034539;28;20504;-81
2022/04/22 12:08:07;;;;;;;2.97;1.97;;;18.30;61.70;;;;;;5034337;28;20537;-81
2022/04/22 12:10:35;;;;;;;6.60;1.67;;;18.10;61.40;;;;;;5034363;28;20431;-81
2022/04/22 12:13:03;;;;;;;3.83;2.17;;;17.90;61.70;;;;;;5034000;28;20462;-80
2022/04/22 12:15:30;;;;;;;3.67;2.30;;;17.70;62.80;;;;;;5034345;28;20446;-81
2022/04/22 12:17:57;;;;;;;2.87;2.00;;;17.80;63.10;;;;;;5034188;28;20453;-81
2022/04/22 12:20:26;;;;;;;2.47;1.90;;;17.80;63.00;;;;;;5033974;28;20450;-80
2022/04/22 12:22:55;;;;;;;3.07;1.60;;;17.80;64.00;;;;;;5034198;28;20470;-83
2022/04/22 12:25:23;;;;;;;2.53;1.70;;;18.00;63.50;;;;;;5033990;28;20490;-82
2022/04/22 12:28:07;;;;;;;1.40;1.30;;;17.80;63.60;;;;;;5034084;28;20453;-82
2022/04/22 12:30:36;;;;;;;1.80;1.70;;;17.70;63.10;;;;;;5034311;28;20481;-82
2022/04/22 12:33:03;;;;;;;3.23;2.10;;;17.70;63.60;;;;;;5034520;28;20478;-86
2022/04/22 12:35:31;;;;;;;3.63;1.70;;;17.70;63.30;;;;;;5034627;28;20455;-88
2022/04/22 12:37:58;;;;;;;3.63;1.93;;;17.70;63.40;;;;;;5035228;28;20502;-87
2022/04/22 12:40:26;;;;;;;1.90;1.00;;;17.80;64.70;;;;;;5034714;28;20439;-86
2022/04/22 12:42:53;;;;;;;3.60;2.50;;;17.80;63.30;;;;;;5035043;28;20506;-86
2022/04/22 12:53:42;;;;;;;2.07;1.70;;;18.20;62.50;;;;;;5034683;28;20410;-84
2022/04/22 12:56:10;;;;;;;2.00;1.60;;;18.00;62.60;;;;;;5034394;28;20459;-86
2022/04/22 12:58:51;;;;;;;4.83;2.37;;;17.80;63.10;;;;;;5034559;28;20446;-84
2022/04/22 13:01:19;;;;;;;3.87;1.20;;;17.60;63.60;;;;;;5034260;28;20536;-84
2022/04/22 13:03:46;;;;;;;2.47;1.33;;;17.50;63.80;;;;;;5033645;28;20482;-82
2022/04/22 13:06:38;;;;;;;1.73;1.63;;;17.30;64.40;;;;;;5033639;28;20438;-81
2022/04/22 13:09:05;;;;;;;4.37;2.20;;;17.30;64.50;;;;;;5033192;28;20805;-81
2022/04/22 13:11:32;;;;;;;3.20;2.40;;;17.20;63.80;;;;;;5033140;28;20470;-81
2022/04/22 13:14:00;;;;;;;2.13;1.93;;;17.20;64.10;;;;;;5032416;28;20450;-80
2022/04/22 13:16:26;;;;;;;2.20;1.40;;;17.20;64.10;;;;;;5034154;28;20501;-86
2022/04/22 13:18:53;;;;;;;1.53;1.43;;;17.10;64.30;;;;;;5033990;28;20451;-82
2022/04/22 13:21:21;;;;;;;1.47;1.37;;;17.20;64.80;;;;;;5033266;28;20818;-83
2022/04/22 13:23:50;;;;;;;5.40;2.20;;;17.10;65.00;;;;;;5032998;28;20489;-83
2022/04/22 13:26:17;;;;;;;3.50;1.90;;;17.10;66.10;;;;;;5033449;28;20469;-84
2022/04/22 13:28:44;;;;;;;4.10;2.13;;;17.20;65.30;;;;;;5033290;28;20788;-83
2022/04/22 13:31:11;;;;;;;1.77;1.23;;;17.30;65.90;;;;;;5033204;28;20998;-81
2022/04/22 13:33:39;;;;;;;2.70;1.40;;;17.40;65.10;;;;;;5032742;28;20447;-80
2022/04/22 13:36:09;;;;;;;4.03;2.10;;;17.40;64.80;;;;;;5032771;28;20950;-81
2022/04/22 13:38:38;;;;;;;1.73;1.40;;;17.50;64.60;;;;;;5033050;28;20538;-80
2022/04/22 13:41:05;;;;;;;2.40;2.10;;;17.40;64.00;;;;;;5033006;28;20446;-79
2022/04/22 13:43:33;;;;;;;2.37;1.50;;;17.30;64.00;;;;;;5036389;28;20462;-79
2022/04/22 13:54:14;;;;;;;1.37;1.00;;;17.20;63.70;;;;;;5032674;28;20410;-82
2022/04/22 13:56:41;;;;;;;3.63;1.67;;;17.20;63.80;;;;;;5032768;28;20454;-81
2022/04/22 13:59:07;;;;;;;3.63;2.00;;;17.30;64.10;;;;;;5032784;28;20450;-81
2022/04/22 14:01:35;;;;;;;6.63;2.40;;;17.50;64.60;;;;;;5032323;28;20489;-81
2022/04/22 14:04:01;;;;;;;3.00;1.37;;;17.60;64.30;;;;;;5032729;28;20828;-82
2022/04/22 14:06:28;;;;;;;3.20;1.10;;;17.60;63.90;;;;;;5032379;28;20832;-81
2022/04/22 14:08:55;;;;;;;5.57;2.10;;;17.80;62.60;;;;;;5032686;28;20450;-82
2022/04/22 14:11:23;;;;;;;0.97;0.80;;;17.80;61.80;;;;;;5032401;28;20981;-81
2022/04/22 14:13:50;;;;;;;1.20;1.00;;;17.80;62.20;;;;;;5032584;28;20451;-82
2022/04/22 14:16:17;;;;;;;1.80;1.70;;;17.70;62.00;;;;;;5032556;28;20447;-81
2022/04/22 14:18:45;;;;;;;2.57;1.83;;;17.50;63.00;;;;;;5032543;28;20450;-81